sensor_id;sensor_type;location;lat;lon;timestamp;P1;durP1;ratioP1;P2;durP2;ratioP2
48875;SDS011;34689;51.644;5.618;2023-05-10T00:00:20;6.00;;;3.97;;
48875;SDS011;34689;51.644;5.618;2023-05-10T00:02:47;7.50;;;4.45;;
48875;SDS011;34689;51.644;5.618;2023-05-10T00:05:13;7.55;;;4.85;;
48875;SDS011;34689;51.644;5.618;2023-05-10T00:07:41;8.50;;;4.75;;
48875;SDS011;34689;51.644;5.618;2023-05-10T00:10:10;4.78;;;3.20;;
48875;SDS011;34689;51.644;5.618;2023-05-10T00:12:36;5.07;;;3.40;;
48875;SDS011;34689;51.644;5.618;2023-05-10T00:15:02;6.53;;;3.30;;
48875;SDS011;34689;51.644;5.618;2023-05-10T00:17:28;7.70;;;3.90;;
48875;SDS011;34689;51.644;5.618;2023-05-10T00:19:54;4.95;;;3.47;;
48875;SDS011;34689;51.644;5.618;2023-05-10T00:22:20;6.05;;;3.67;;
48875;SDS011;34689;51.644;5.618;2023-05-10T00:24:48;5.22;;;3.63;;
48875;SDS011;34689;51.644;5.618;2023-05-10T00:27:13;6.05;;;4.05;;
48875;SDS011;34689;51.644;5.618;2023-05-10T00:29:39;7.25;;;4.75;;
48875;SDS011;34689;51.644;5.618;2023-05-10T00:32:07;9.48;;;5.75;;
48875;SDS011;34689;51.644;5.618;2023-05-10T00:34:32;8.20;;;4.72;;
48875;SDS011;34689;51.644;5.618;2023-05-10T00:36:58;8.60;;;4.55;;
48875;SDS011;34689;51.644;5.618;2023-05-10T00:39:24;8.25;;;4.72;;
48875;SDS011;34689;51.644;5.618;2023-05-10T00:41:51;9.80;;;5.53;;
48875;SDS011;34689;51.644;5.618;2023-05-10T00:44:19;9.43;;;5.05;;
48875;SDS011;34689;51.644;5.618;2023-05-10T00:46:47;7.45;;;5.20;;
48875;SDS011;34689;51.644;5.618;2023-05-10T00:49:16;9.70;;;5.28;;
48875;SDS011;34689;51.644;5.618;2023-05-10T00:51:43;7.15;;;4.97;;
48875;SDS011;34689;51.644;5.618;2023-05-10T00:54:10;10.75;;;5.40;;
48875;SDS011;34689;51.644;5.618;2023-05-10T00:56:39;10.00;;;5.75;;
48875;SDS011;34689;51.644;5.618;2023-05-10T00:59:08;10.77;;;5.22;;
48875;SDS011;34689;51.644;5.618;2023-05-10T01:01:35;9.60;;;6.15;;
48875;SDS011;34689;51.644;5.618;2023-05-10T01:04:04;13.68;;;6.93;;
48875;SDS011;34689;51.644;5.618;2023-05-10T01:06:32;12.10;;;6.85;;
48875;SDS011;34689;51.644;5.618;2023-05-10T01:08:57;10.93;;;6.15;;
48875;SDS011;34689;51.644;5.618;2023-05-10T01:11:23;9.32;;;5.78;;
48875;SDS011;34689;51.644;5.618;2023-05-10T01:13:52;13.60;;;6.93;;
48875;SDS011;34689;51.644;5.618;2023-05-10T01:16:23;20.25;;;10.23;;
48875;SDS011;34689;51.644;5.618;2023-05-10T01:18:50;11.68;;;6.13;;
48875;SDS011;34689;51.644;5.618;2023-05-10T01:24:15;12.15;;;6.35;;
48875;SDS011;34689;51.644;5.618;2023-05-10T01:26:55;14.18;;;7.05;;
48875;SDS011;34689;51.644;5.618;2023-05-10T01:35:08;9.98;;;6.00;;
48875;SDS011;34689;51.644;5.618;2023-05-10T01:37:42;10.77;;;5.82;;
48875;SDS011;34689;51.644;5.618;2023-05-10T01:40:31;11.05;;;6.43;;
48875;SDS011;34689;51.644;5.618;2023-05-10T01:43:06;11.80;;;6.05;;
48875;SDS011;34689;51.644;5.618;2023-05-10T01:48:21;11.10;;;6.15;;
48875;SDS011;34689;51.644;5.618;2023-05-10T01:50:48;13.43;;;7.47;;
48875;SDS011;34689;51.644;5.618;2023-05-10T01:53:17;14.80;;;7.63;;
48875;SDS011;34689;51.644;5.618;2023-05-10T01:55:46;12.93;;;7.75;;
48875;SDS011;34689;51.644;5.618;2023-05-10T01:58:22;13.52;;;7.18;;
48875;SDS011;34689;51.644;5.618;2023-05-10T02:00:53;13.35;;;7.35;;
48875;SDS011;34689;51.644;5.618;2023-05-10T02:03:20;13.85;;;7.50;;
48875;SDS011;34689;51.644;5.618;2023-05-10T02:05:49;14.05;;;7.03;;
48875;SDS011;34689;51.644;5.618;2023-05-10T02:08:17;19.40;;;9.48;;
48875;SDS011;34689;51.644;5.618;2023-05-10T02:10:45;15.35;;;8.57;;
48875;SDS011;34689;51.644;5.618;2023-05-10T02:13:12;25.05;;;11.63;;
48875;SDS011;34689;51.644;5.618;2023-05-10T02:15:39;25.45;;;10.07;;
48875;SDS011;34689;51.644;5.618;2023-05-10T02:18:06;24.08;;;10.40;;
48875;SDS011;34689;51.644;5.618;2023-05-10T02:20:35;30.45;;;12.20;;
48875;SDS011;34689;51.644;5.618;2023-05-10T02:23:03;28.70;;;10.98;;
48875;SDS011;34689;51.644;5.618;2023-05-10T02:25:32;30.50;;;12.77;;
48875;SDS011;34689;51.644;5.618;2023-05-10T02:27:58;32.22;;;13.13;;
48875;SDS011;34689;51.644;5.618;2023-05-10T02:30:30;28.45;;;11.45;;
48875;SDS011;34689;51.644;5.618;2023-05-10T02:32:57;24.27;;;10.48;;
48875;SDS011;34689;51.644;5.618;2023-05-10T02:35:26;21.55;;;10.18;;
48875;SDS011;34689;51.644;5.618;2023-05-10T02:37:53;22.30;;;9.65;;
48875;SDS011;34689;51.644;5.618;2023-05-10T02:40:19;21.73;;;9.63;;
48875;SDS011;34689;51.644;5.618;2023-05-10T02:42:48;20.88;;;9.48;;
48875;SDS011;34689;51.644;5.618;2023-05-10T02:45:20;28.60;;;11.93;;
48875;SDS011;34689;51.644;5.618;2023-05-10T02:47:48;23.77;;;11.18;;
48875;SDS011;34689;51.644;5.618;2023-05-10T02:50:14;21.75;;;8.80;;
48875;SDS011;34689;51.644;5.618;2023-05-10T02:52:45;26.58;;;10.98;;
48875;SDS011;34689;51.644;5.618;2023-05-10T02:55:16;17.42;;;9.75;;
48875;SDS011;34689;51.644;5.618;2023-05-10T02:57:48;25.95;;;11.10;;
48875;SDS011;34689;51.644;5.618;2023-05-10T03:00:16;23.55;;;9.88;;
48875;SDS011;34689;51.644;5.618;2023-05-10T03:02:42;20.17;;;9.27;;
48875;SDS011;34689;51.644;5.618;2023-05-10T03:05:10;18.80;;;9.10;;
48875;SDS011;34689;51.644;5.618;2023-05-10T03:07:36;23.05;;;9.77;;
48875;SDS011;34689;51.644;5.618;2023-05-10T03:10:04;19.67;;;9.88;;
48875;SDS011;34689;51.644;5.618;2023-05-10T03:20:47;20.30;;;10.02;;
48875;SDS011;34689;51.644;5.618;2023-05-10T03:26:09;25.10;;;12.05;;
48875;SDS011;34689;51.644;5.618;2023-05-10T03:28:38;26.35;;;11.85;;
48875;SDS011;34689;51.644;5.618;2023-05-10T03:31:08;20.77;;;11.40;;
48875;SDS011;34689;51.644;5.618;2023-05-10T03:33:45;19.88;;;10.85;;
48875;SDS011;34689;51.644;5.618;2023-05-10T03:36:13;21.13;;;10.32;;
48875;SDS011;34689;51.644;5.618;2023-05-10T03:38:45;19.90;;;11.02;;
48875;SDS011;34689;51.644;5.618;2023-05-10T03:41:10;23.23;;;12.18;;
48875;SDS011;34689;51.644;5.618;2023-05-10T03:43:36;25.63;;;13.13;;
48875;SDS011;34689;51.644;5.618;2023-05-10T03:46:04;26.60;;;13.30;;
48875;SDS011;34689;51.644;5.618;2023-05-10T03:48:33;25.42;;;12.63;;
48875;SDS011;34689;51.644;5.618;2023-05-10T03:50:59;27.77;;;12.52;;
48875;SDS011;34689;51.644;5.618;2023-05-10T03:53:25;23.58;;;13.23;;
48875;SDS011;34689;51.644;5.618;2023-05-10T03:55:51;26.30;;;13.20;;
48875;SDS011;34689;51.644;5.618;2023-05-10T03:58:17;22.80;;;12.68;;
48875;SDS011;34689;51.644;5.618;2023-05-10T04:00:43;25.05;;;12.82;;
48875;SDS011;34689;51.644;5.618;2023-05-10T04:03:10;26.00;;;12.45;;
48875;SDS011;34689;51.644;5.618;2023-05-10T04:05:36;30.35;;;13.50;;
48875;SDS011;34689;51.644;5.618;2023-05-10T04:08:02;26.00;;;13.07;;
48875;SDS011;34689;51.644;5.618;2023-05-10T04:10:28;24.08;;;12.05;;
48875;SDS011;34689;51.644;5.618;2023-05-10T04:12:57;32.65;;;14.57;;
48875;SDS011;34689;51.644;5.618;2023-05-10T04:15:25;24.42;;;12.55;;
48875;SDS011;34689;51.644;5.618;2023-05-10T04:17:51;26.10;;;13.93;;
48875;SDS011;34689;51.644;5.618;2023-05-10T04:20:20;21.77;;;11.95;;
48875;SDS011;34689;51.644;5.618;2023-05-10T04:22:45;23.40;;;11.90;;
48875;SDS011;34689;51.644;5.618;2023-05-10T04:25:11;20.75;;;10.05;;
48875;SDS011;34689;51.644;5.618;2023-05-10T04:27:37;22.80;;;11.32;;
48875;SDS011;34689;51.644;5.618;2023-05-10T04:30:02;32.47;;;12.48;;
48875;SDS011;34689;51.644;5.618;2023-05-10T04:32:28;24.88;;;11.77;;
48875;SDS011;34689;51.644;5.618;2023-05-10T04:34:54;22.33;;;11.30;;
48875;SDS011;34689;51.644;5.618;2023-05-10T04:37:22;19.75;;;9.73;;
48875;SDS011;34689;51.644;5.618;2023-05-10T04:39:48;22.05;;;9.95;;
48875;SDS011;34689;51.644;5.618;2023-05-10T04:42:13;19.95;;;10.20;;
48875;SDS011;34689;51.644;5.618;2023-05-10T04:44:40;20.95;;;9.55;;
48875;SDS011;34689;51.644;5.618;2023-05-10T04:47:08;18.27;;;8.98;;
48875;SDS011;34689;51.644;5.618;2023-05-10T04:49:38;13.32;;;7.00;;
48875;SDS011;34689;51.644;5.618;2023-05-10T04:52:04;19.60;;;8.75;;
48875;SDS011;34689;51.644;5.618;2023-05-10T04:54:30;15.73;;;7.72;;
48875;SDS011;34689;51.644;5.618;2023-05-10T04:56:56;20.77;;;10.32;;
48875;SDS011;34689;51.644;5.618;2023-05-10T04:59:24;18.90;;;9.93;;
48875;SDS011;34689;51.644;5.618;2023-05-10T05:01:49;18.15;;;9.05;;
48875;SDS011;34689;51.644;5.618;2023-05-10T05:04:15;16.63;;;8.55;;
48875;SDS011;34689;51.644;5.618;2023-05-10T05:06:41;18.33;;;9.85;;
48875;SDS011;34689;51.644;5.618;2023-05-10T05:09:06;17.58;;;9.88;;
48875;SDS011;34689;51.644;5.618;2023-05-10T05:11:32;19.65;;;8.32;;
48875;SDS011;34689;51.644;5.618;2023-05-10T05:13:58;20.77;;;9.45;;
48875;SDS011;34689;51.644;5.618;2023-05-10T05:16:24;22.80;;;10.07;;
48875;SDS011;34689;51.644;5.618;2023-05-10T05:18:50;23.15;;;12.63;;
48875;SDS011;34689;51.644;5.618;2023-05-10T05:21:16;27.33;;;13.05;;
48875;SDS011;34689;51.644;5.618;2023-05-10T05:23:43;18.73;;;9.25;;
48875;SDS011;34689;51.644;5.618;2023-05-10T05:26:09;11.93;;;7.25;;
48875;SDS011;34689;51.644;5.618;2023-05-10T05:28:37;17.15;;;9.15;;
48875;SDS011;34689;51.644;5.618;2023-05-10T05:31:06;20.52;;;8.90;;
48875;SDS011;34689;51.644;5.618;2023-05-10T05:33:34;21.10;;;9.77;;
48875;SDS011;34689;51.644;5.618;2023-05-10T05:36:00;19.23;;;11.40;;
48875;SDS011;34689;51.644;5.618;2023-05-10T05:38:27;16.52;;;9.68;;
48875;SDS011;34689;51.644;5.618;2023-05-10T05:40:53;13.30;;;8.32;;
48875;SDS011;34689;51.644;5.618;2023-05-10T05:43:18;20.88;;;11.45;;
48875;SDS011;34689;51.644;5.618;2023-05-10T05:45:44;20.20;;;9.77;;
48875;SDS011;34689;51.644;5.618;2023-05-10T05:48:10;18.73;;;8.45;;
48875;SDS011;34689;51.644;5.618;2023-05-10T05:50:36;16.35;;;8.82;;
48875;SDS011;34689;51.644;5.618;2023-05-10T05:53:01;18.17;;;9.55;;
48875;SDS011;34689;51.644;5.618;2023-05-10T05:55:30;17.20;;;8.60;;
48875;SDS011;34689;51.644;5.618;2023-05-10T05:57:56;15.90;;;8.38;;
48875;SDS011;34689;51.644;5.618;2023-05-10T06:00:24;13.60;;;7.85;;
48875;SDS011;34689;51.644;5.618;2023-05-10T06:02:50;15.27;;;9.05;;
48875;SDS011;34689;51.644;5.618;2023-05-10T06:05:16;17.33;;;8.75;;
48875;SDS011;34689;51.644;5.618;2023-05-10T06:07:42;14.15;;;8.23;;
48875;SDS011;34689;51.644;5.618;2023-05-10T06:10:08;16.95;;;8.93;;
48875;SDS011;34689;51.644;5.618;2023-05-10T06:12:34;21.25;;;10.07;;
48875;SDS011;34689;51.644;5.618;2023-05-10T06:15:00;19.80;;;9.85;;
48875;SDS011;34689;51.644;5.618;2023-05-10T06:17:26;17.45;;;10.40;;
48875;SDS011;34689;51.644;5.618;2023-05-10T06:19:52;17.83;;;8.90;;
48875;SDS011;34689;51.644;5.618;2023-05-10T06:22:18;13.60;;;8.00;;
48875;SDS011;34689;51.644;5.618;2023-05-10T06:24:43;16.42;;;9.70;;
48875;SDS011;34689;51.644;5.618;2023-05-10T06:27:09;13.73;;;8.05;;
48875;SDS011;34689;51.644;5.618;2023-05-10T06:29:35;10.70;;;6.28;;
48875;SDS011;34689;51.644;5.618;2023-05-10T06:32:01;11.20;;;6.03;;
48875;SDS011;34689;51.644;5.618;2023-05-10T06:34:27;13.60;;;6.25;;
48875;SDS011;34689;51.644;5.618;2023-05-10T06:36:52;12.85;;;5.75;;
48875;SDS011;34689;51.644;5.618;2023-05-10T06:39:18;11.70;;;6.90;;
48875;SDS011;34689;51.644;5.618;2023-05-10T06:41:44;11.32;;;6.28;;
48875;SDS011;34689;51.644;5.618;2023-05-10T06:44:10;14.25;;;7.75;;
48875;SDS011;34689;51.644;5.618;2023-05-10T06:46:36;10.93;;;6.10;;
48875;SDS011;34689;51.644;5.618;2023-05-10T06:49:02;14.25;;;6.50;;
48875;SDS011;34689;51.644;5.618;2023-05-10T06:51:27;13.35;;;7.72;;
48875;SDS011;34689;51.644;5.618;2023-05-10T06:53:53;15.68;;;9.32;;
48875;SDS011;34689;51.644;5.618;2023-05-10T06:56:19;15.10;;;8.60;;
48875;SDS011;34689;51.644;5.618;2023-05-10T06:58:46;16.83;;;8.75;;
48875;SDS011;34689;51.644;5.618;2023-05-10T07:01:14;15.85;;;8.90;;
48875;SDS011;34689;51.644;5.618;2023-05-10T07:03:40;15.98;;;8.40;;
48875;SDS011;34689;51.644;5.618;2023-05-10T07:06:11;13.57;;;7.47;;
48875;SDS011;34689;51.644;5.618;2023-05-10T07:08:40;17.00;;;9.50;;
48875;SDS011;34689;51.644;5.618;2023-05-10T07:11:06;15.10;;;8.80;;
48875;SDS011;34689;51.644;5.618;2023-05-10T07:13:38;14.15;;;8.68;;
48875;SDS011;34689;51.644;5.618;2023-05-10T07:16:06;13.05;;;8.18;;
48875;SDS011;34689;51.644;5.618;2023-05-10T07:18:32;11.57;;;7.30;;
48875;SDS011;34689;51.644;5.618;2023-05-10T07:20:58;9.38;;;5.72;;
48875;SDS011;34689;51.644;5.618;2023-05-10T07:23:24;14.52;;;8.43;;
48875;SDS011;34689;51.644;5.618;2023-05-10T07:25:53;12.40;;;7.05;;
48875;SDS011;34689;51.644;5.618;2023-05-10T07:28:22;15.18;;;8.93;;
48875;SDS011;34689;51.644;5.618;2023-05-10T07:30:48;15.98;;;8.45;;
48875;SDS011;34689;51.644;5.618;2023-05-10T07:33:14;13.55;;;6.78;;
48875;SDS011;34689;51.644;5.618;2023-05-10T07:35:42;11.57;;;6.97;;
48875;SDS011;34689;51.644;5.618;2023-05-10T07:38:08;15.57;;;8.55;;
48875;SDS011;34689;51.644;5.618;2023-05-10T07:40:36;16.50;;;9.18;;
48875;SDS011;34689;51.644;5.618;2023-05-10T07:43:04;16.52;;;9.55;;
48875;SDS011;34689;51.644;5.618;2023-05-10T07:45:30;13.75;;;7.85;;
48875;SDS011;34689;51.644;5.618;2023-05-10T07:47:56;10.43;;;6.38;;
48875;SDS011;34689;51.644;5.618;2023-05-10T07:50:21;15.90;;;9.40;;
48875;SDS011;34689;51.644;5.618;2023-05-10T07:52:47;12.52;;;7.78;;
48875;SDS011;34689;51.644;5.618;2023-05-10T07:55:13;18.45;;;10.15;;
48875;SDS011;34689;51.644;5.618;2023-05-10T07:57:43;11.73;;;6.95;;
48875;SDS011;34689;51.644;5.618;2023-05-10T08:00:12;13.07;;;6.97;;
48875;SDS011;34689;51.644;5.618;2023-05-10T08:02:38;12.20;;;7.07;;
48875;SDS011;34689;51.644;5.618;2023-05-10T08:05:04;10.23;;;5.95;;
48875;SDS011;34689;51.644;5.618;2023-05-10T08:07:30;9.93;;;5.65;;
48875;SDS011;34689;51.644;5.618;2023-05-10T08:09:56;12.45;;;7.10;;
48875;SDS011;34689;51.644;5.618;2023-05-10T08:12:22;12.10;;;5.75;;
48875;SDS011;34689;51.644;5.618;2023-05-10T08:14:47;11.80;;;6.82;;
48875;SDS011;34689;51.644;5.618;2023-05-10T08:17:13;11.07;;;6.72;;
48875;SDS011;34689;51.644;5.618;2023-05-10T08:19:41;9.73;;;5.97;;
48875;SDS011;34689;51.644;5.618;2023-05-10T08:22:09;14.32;;;8.57;;
48875;SDS011;34689;51.644;5.618;2023-05-10T08:24:35;12.82;;;7.88;;
48875;SDS011;34689;51.644;5.618;2023-05-10T08:27:04;13.52;;;7.50;;
48875;SDS011;34689;51.644;5.618;2023-05-10T08:29:30;10.52;;;6.50;;
48875;SDS011;34689;51.644;5.618;2023-05-10T08:31:56;11.98;;;7.63;;
48875;SDS011;34689;51.644;5.618;2023-05-10T08:34:22;13.02;;;7.53;;
48875;SDS011;34689;51.644;5.618;2023-05-10T08:36:48;15.80;;;8.80;;
48875;SDS011;34689;51.644;5.618;2023-05-10T08:39:14;7.65;;;5.40;;
48875;SDS011;34689;51.644;5.618;2023-05-10T08:41:42;8.00;;;4.95;;
48875;SDS011;34689;51.644;5.618;2023-05-10T08:44:12;10.85;;;6.47;;
48875;SDS011;34689;51.644;5.618;2023-05-10T08:46:40;13.57;;;7.93;;
48875;SDS011;34689;51.644;5.618;2023-05-10T08:49:10;10.60;;;6.35;;
48875;SDS011;34689;51.644;5.618;2023-05-10T08:51:47;10.43;;;6.82;;
48875;SDS011;34689;51.644;5.618;2023-05-10T08:54:16;12.43;;;6.57;;
48875;SDS011;34689;51.644;5.618;2023-05-10T08:56:42;13.98;;;8.75;;
48875;SDS011;34689;51.644;5.618;2023-05-10T08:59:08;12.43;;;7.82;;
48875;SDS011;34689;51.644;5.618;2023-05-10T09:01:35;12.57;;;7.75;;
48875;SDS011;34689;51.644;5.618;2023-05-10T09:04:08;11.15;;;7.55;;
48875;SDS011;34689;51.644;5.618;2023-05-10T09:06:34;8.77;;;4.93;;
48875;SDS011;34689;51.644;5.618;2023-05-10T09:09:00;10.38;;;6.82;;
48875;SDS011;34689;51.644;5.618;2023-05-10T09:11:26;8.05;;;5.43;;
48875;SDS011;34689;51.644;5.618;2023-05-10T09:13:54;8.43;;;5.47;;
48875;SDS011;34689;51.644;5.618;2023-05-10T09:16:23;9.27;;;5.55;;
48875;SDS011;34689;51.644;5.618;2023-05-10T09:18:49;9.13;;;5.50;;
48875;SDS011;34689;51.644;5.618;2023-05-10T09:21:15;8.55;;;5.45;;
48875;SDS011;34689;51.644;5.618;2023-05-10T09:23:44;7.93;;;5.38;;
48875;SDS011;34689;51.644;5.618;2023-05-10T09:26:11;8.73;;;5.57;;
48875;SDS011;34689;51.644;5.618;2023-05-10T09:31:22;10.60;;;5.45;;
48875;SDS011;34689;51.644;5.618;2023-05-10T09:33:49;6.45;;;4.40;;
48875;SDS011;34689;51.644;5.618;2023-05-10T09:36:15;8.23;;;5.03;;
48875;SDS011;34689;51.644;5.618;2023-05-10T09:38:51;7.75;;;5.32;;
48875;SDS011;34689;51.644;5.618;2023-05-10T09:43:47;6.68;;;4.00;;
48875;SDS011;34689;51.644;5.618;2023-05-10T09:46:20;8.27;;;5.03;;
48875;SDS011;34689;51.644;5.618;2023-05-10T09:48:46;6.05;;;4.00;;
48875;SDS011;34689;51.644;5.618;2023-05-10T09:51:19;7.45;;;4.43;;
48875;SDS011;34689;51.644;5.618;2023-05-10T09:53:45;5.68;;;4.15;;
48875;SDS011;34689;51.644;5.618;2023-05-10T09:56:11;5.82;;;4.03;;
48875;SDS011;34689;51.644;5.618;2023-05-10T09:58:40;7.50;;;4.45;;
48875;SDS011;34689;51.644;5.618;2023-05-10T10:01:10;5.97;;;4.38;;
48875;SDS011;34689;51.644;5.618;2023-05-10T10:03:41;11.73;;;6.53;;
48875;SDS011;34689;51.644;5.618;2023-05-10T10:06:10;8.95;;;6.20;;
48875;SDS011;34689;51.644;5.618;2023-05-10T10:08:36;9.13;;;6.55;;
48875;SDS011;34689;51.644;5.618;2023-05-10T10:11:02;11.73;;;8.25;;
48875;SDS011;34689;51.644;5.618;2023-05-10T10:13:28;8.88;;;7.07;;
48875;SDS011;34689;51.644;5.618;2023-05-10T10:15:57;8.80;;;6.45;;
48875;SDS011;34689;51.644;5.618;2023-05-10T10:18:25;8.65;;;5.22;;
48875;SDS011;34689;51.644;5.618;2023-05-10T10:20:53;11.13;;;5.93;;
48875;SDS011;34689;51.644;5.618;2023-05-10T10:23:20;7.18;;;5.30;;
48875;SDS011;34689;51.644;5.618;2023-05-10T10:25:48;7.22;;;5.22;;
48875;SDS011;34689;51.644;5.618;2023-05-10T10:28:16;6.13;;;4.30;;
48875;SDS011;34689;51.644;5.618;2023-05-10T10:30:53;11.07;;;5.50;;
48875;SDS011;34689;51.644;5.618;2023-05-10T10:36:04;7.43;;;4.47;;
48875;SDS011;34689;51.644;5.618;2023-05-10T10:41:36;7.50;;;4.63;;
48875;SDS011;34689;51.644;5.618;2023-05-10T10:52:13;5.35;;;3.80;;
48875;SDS011;34689;51.644;5.618;2023-05-10T10:54:46;4.95;;;3.78;;
48875;SDS011;34689;51.644;5.618;2023-05-10T10:57:21;5.40;;;3.67;;
48875;SDS011;34689;51.644;5.618;2023-05-10T10:59:47;5.85;;;4.38;;
48875;SDS011;34689;51.644;5.618;2023-05-10T11:04:59;7.60;;;4.97;;
48875;SDS011;34689;51.644;5.618;2023-05-10T11:07:25;6.50;;;4.28;;
48875;SDS011;34689;51.644;5.618;2023-05-10T11:09:51;4.82;;;3.78;;
48875;SDS011;34689;51.644;5.618;2023-05-10T11:12:17;4.35;;;3.53;;
48875;SDS011;34689;51.644;5.618;2023-05-10T11:14:49;6.22;;;4.22;;
48875;SDS011;34689;51.644;5.618;2023-05-10T11:17:26;5.03;;;4.00;;
48875;SDS011;34689;51.644;5.618;2023-05-10T11:20:06;6.95;;;5.05;;
48875;SDS011;34689;51.644;5.618;2023-05-10T11:22:51;6.40;;;4.45;;
48875;SDS011;34689;51.644;5.618;2023-05-10T11:25:18;4.55;;;2.92;;
48875;SDS011;34689;51.644;5.618;2023-05-10T11:27:44;4.78;;;3.03;;
48875;SDS011;34689;51.644;5.618;2023-05-10T11:30:13;4.80;;;3.60;;
48875;SDS011;34689;51.644;5.618;2023-05-10T11:32:40;4.85;;;3.30;;
48875;SDS011;34689;51.644;5.618;2023-05-10T11:35:09;5.57;;;4.63;;
48875;SDS011;34689;51.644;5.618;2023-05-10T11:37:37;5.93;;;3.72;;
48875;SDS011;34689;51.644;5.618;2023-05-10T11:40:07;7.00;;;4.32;;
48875;SDS011;34689;51.644;5.618;2023-05-10T11:42:36;7.45;;;4.50;;
48875;SDS011;34689;51.644;5.618;2023-05-10T11:45:02;5.97;;;3.83;;
48875;SDS011;34689;51.644;5.618;2023-05-10T11:47:28;4.57;;;3.35;;
48875;SDS011;34689;51.644;5.618;2023-05-10T11:49:54;5.47;;;3.65;;
48875;SDS011;34689;51.644;5.618;2023-05-10T11:52:20;6.97;;;4.60;;
48875;SDS011;34689;51.644;5.618;2023-05-10T11:54:52;8.73;;;5.10;;
48875;SDS011;34689;51.644;5.618;2023-05-10T11:57:25;12.15;;;6.05;;
48875;SDS011;34689;51.644;5.618;2023-05-10T11:59:56;12.77;;;7.45;;
48875;SDS011;34689;51.644;5.618;2023-05-10T12:02:22;12.07;;;7.22;;
48875;SDS011;34689;51.644;5.618;2023-05-10T12:04:49;11.32;;;6.10;;
48875;SDS011;34689;51.644;5.618;2023-05-10T12:07:15;9.32;;;6.35;;
48875;SDS011;34689;51.644;5.618;2023-05-10T12:09:43;8.65;;;5.55;;
48875;SDS011;34689;51.644;5.618;2023-05-10T12:12:10;5.95;;;3.88;;
48875;SDS011;34689;51.644;5.618;2023-05-10T12:14:41;6.80;;;3.97;;
48875;SDS011;34689;51.644;5.618;2023-05-10T12:17:11;6.55;;;4.28;;
48875;SDS011;34689;51.644;5.618;2023-05-10T12:19:37;4.25;;;3.33;;
48875;SDS011;34689;51.644;5.618;2023-05-10T12:22:06;4.05;;;2.67;;
48875;SDS011;34689;51.644;5.618;2023-05-10T12:24:38;3.28;;;2.83;;
48875;SDS011;34689;51.644;5.618;2023-05-10T12:27:05;3.43;;;2.77;;
48875;SDS011;34689;51.644;5.618;2023-05-10T12:29:33;6.18;;;2.55;;
48875;SDS011;34689;51.644;5.618;2023-05-10T12:32:01;3.70;;;2.30;;
48875;SDS011;34689;51.644;5.618;2023-05-10T12:34:30;3.13;;;2.17;;
48875;SDS011;34689;51.644;5.618;2023-05-10T12:37:00;2.50;;;2.17;;
48875;SDS011;34689;51.644;5.618;2023-05-10T12:39:40;2.35;;;1.85;;
48875;SDS011;34689;51.644;5.618;2023-05-10T12:42:07;3.20;;;2.13;;
48875;SDS011;34689;51.644;5.618;2023-05-10T12:44:33;3.70;;;2.47;;
48875;SDS011;34689;51.644;5.618;2023-05-10T12:46:59;3.90;;;2.38;;
48875;SDS011;34689;51.644;5.618;2023-05-10T12:49:24;3.88;;;2.58;;
48875;SDS011;34689;51.644;5.618;2023-05-10T12:51:52;5.53;;;3.33;;
48875;SDS011;34689;51.644;5.618;2023-05-10T12:54:20;5.40;;;2.85;;
48875;SDS011;34689;51.644;5.618;2023-05-10T12:56:48;4.55;;;2.70;;
48875;SDS011;34689;51.644;5.618;2023-05-10T12:59:14;4.35;;;3.00;;
48875;SDS011;34689;51.644;5.618;2023-05-10T13:01:43;5.25;;;4.05;;
48875;SDS011;34689;51.644;5.618;2023-05-10T13:04:08;7.00;;;5.07;;
48875;SDS011;34689;51.644;5.618;2023-05-10T13:06:34;6.90;;;4.32;;
48875;SDS011;34689;51.644;5.618;2023-05-10T13:09:00;6.85;;;4.13;;
48875;SDS011;34689;51.644;5.618;2023-05-10T13:11:26;4.80;;;4.13;;
48875;SDS011;34689;51.644;5.618;2023-05-10T13:13:51;7.68;;;3.97;;
48875;SDS011;34689;51.644;5.618;2023-05-10T13:16:20;6.57;;;2.92;;
48875;SDS011;34689;51.644;5.618;2023-05-10T13:18:46;4.78;;;2.92;;
48875;SDS011;34689;51.644;5.618;2023-05-10T13:21:11;6.85;;;4.35;;
48875;SDS011;34689;51.644;5.618;2023-05-10T13:23:37;4.95;;;3.05;;
48875;SDS011;34689;51.644;5.618;2023-05-10T13:26:03;3.60;;;2.30;;
48875;SDS011;34689;51.644;5.618;2023-05-10T13:28:28;3.22;;;2.65;;
48875;SDS011;34689;51.644;5.618;2023-05-10T13:30:55;2.75;;;2.00;;
48875;SDS011;34689;51.644;5.618;2023-05-10T13:33:20;3.60;;;2.28;;
48875;SDS011;34689;51.644;5.618;2023-05-10T13:35:46;2.83;;;1.90;;
48875;SDS011;34689;51.644;5.618;2023-05-10T13:38:12;2.55;;;1.63;;
48875;SDS011;34689;51.644;5.618;2023-05-10T13:40:38;2.10;;;1.38;;
48875;SDS011;34689;51.644;5.618;2023-05-10T13:43:04;2.33;;;1.73;;
48875;SDS011;34689;51.644;5.618;2023-05-10T13:45:30;3.33;;;1.90;;
48875;SDS011;34689;51.644;5.618;2023-05-10T13:47:55;5.85;;;2.83;;
48875;SDS011;34689;51.644;5.618;2023-05-10T13:50:24;6.40;;;2.75;;
48875;SDS011;34689;51.644;5.618;2023-05-10T13:52:52;4.18;;;3.00;;
48875;SDS011;34689;51.644;5.618;2023-05-10T13:55:18;3.15;;;2.35;;
48875;SDS011;34689;51.644;5.618;2023-05-10T13:57:44;3.03;;;2.20;;
48875;SDS011;34689;51.644;5.618;2023-05-10T14:00:10;3.08;;;2.08;;
48875;SDS011;34689;51.644;5.618;2023-05-10T14:02:36;3.00;;;1.85;;
48875;SDS011;34689;51.644;5.618;2023-05-10T14:05:05;3.60;;;2.20;;
48875;SDS011;34689;51.644;5.618;2023-05-10T14:07:31;3.60;;;1.88;;
48875;SDS011;34689;51.644;5.618;2023-05-10T14:09:56;3.30;;;1.98;;
48875;SDS011;34689;51.644;5.618;2023-05-10T14:12:22;2.88;;;2.05;;
48875;SDS011;34689;51.644;5.618;2023-05-10T14:14:48;2.42;;;1.98;;
48875;SDS011;34689;51.644;5.618;2023-05-10T14:17:13;2.83;;;2.20;;
48875;SDS011;34689;51.644;5.618;2023-05-10T14:19:39;4.10;;;3.10;;
48875;SDS011;34689;51.644;5.618;2023-05-10T14:22:05;3.45;;;2.58;;
48875;SDS011;34689;51.644;5.618;2023-05-10T14:24:33;3.58;;;2.92;;
48875;SDS011;34689;51.644;5.618;2023-05-10T14:26:59;5.50;;;3.47;;
48875;SDS011;34689;51.644;5.618;2023-05-10T14:29:25;6.68;;;3.75;;
48875;SDS011;34689;51.644;5.618;2023-05-10T14:31:51;4.78;;;3.42;;
48875;SDS011;34689;51.644;5.618;2023-05-10T14:34:19;4.53;;;3.25;;
48875;SDS011;34689;51.644;5.618;2023-05-10T14:36:44;4.00;;;3.08;;
48875;SDS011;34689;51.644;5.618;2023-05-10T14:39:13;5.13;;;3.45;;
48875;SDS011;34689;51.644;5.618;2023-05-10T14:41:41;3.53;;;2.30;;
48875;SDS011;34689;51.644;5.618;2023-05-10T14:44:10;4.05;;;2.33;;
48875;SDS011;34689;51.644;5.618;2023-05-10T14:46:36;4.45;;;2.92;;
48875;SDS011;34689;51.644;5.618;2023-05-10T14:49:02;5.22;;;3.25;;
48875;SDS011;34689;51.644;5.618;2023-05-10T14:51:28;5.50;;;3.42;;
48875;SDS011;34689;51.644;5.618;2023-05-10T14:53:53;4.85;;;3.63;;
48875;SDS011;34689;51.644;5.618;2023-05-10T14:56:22;4.65;;;3.78;;
48875;SDS011;34689;51.644;5.618;2023-05-10T14:58:51;4.75;;;3.83;;
48875;SDS011;34689;51.644;5.618;2023-05-10T15:01:16;5.50;;;4.03;;
48875;SDS011;34689;51.644;5.618;2023-05-10T15:03:42;4.25;;;2.85;;
48875;SDS011;34689;51.644;5.618;2023-05-10T15:06:08;4.55;;;3.67;;
48875;SDS011;34689;51.644;5.618;2023-05-10T15:08:37;5.00;;;3.78;;
48875;SDS011;34689;51.644;5.618;2023-05-10T15:11:03;5.32;;;3.80;;
48875;SDS011;34689;51.644;5.618;2023-05-10T15:13:28;5.57;;;4.15;;
48875;SDS011;34689;51.644;5.618;2023-05-10T15:15:54;5.80;;;4.60;;
48875;SDS011;34689;51.644;5.618;2023-05-10T15:18:20;5.55;;;4.45;;
48875;SDS011;34689;51.644;5.618;2023-05-10T15:20:45;5.55;;;4.25;;
48875;SDS011;34689;51.644;5.618;2023-05-10T15:23:11;5.40;;;3.97;;